sensor_id;sensor_type;location;lat;lon;timestamp;temperature;humidity
27759;DHT22;15148;48.972;12.794;2023-07-22T00:00:23;14.60;99.90
27759;DHT22;15148;48.972;12.794;2023-07-22T00:05:25;14.50;99.90
27759;DHT22;15148;48.972;12.794;2023-07-22T00:10:27;14.50;99.90
27759;DHT22;15148;48.972;12.794;2023-07-22T00:15:29;14.50;99.90
27759;DHT22;15148;48.972;12.794;2023-07-22T00:20:31;14.40;99.90
27759;DHT22;15148;48.972;12.794;2023-07-22T00:25:33;14.30;99.90
27759;DHT22;15148;48.972;12.794;2023-07-22T00:30:35;14.30;99.90
27759;DHT22;15148;48.972;12.794;2023-07-22T00:35:37;14.10;99.90
27759;DHT22;15148;48.972;12.794;2023-07-22T00:40:40;14.00;99.90
27759;DHT22;15148;48.972;12.794;2023-07-22T00:45:42;13.90;99.90
27759;DHT22;15148;48.972;12.794;2023-07-22T00:50:43;13.80;99.90
27759;DHT22;15148;48.972;12.794;2023-07-22T00:55:45;13.80;99.90
27759;DHT22;15148;48.972;12.794;2023-07-22T01:00:53;13.70;99.90
27759;DHT22;15148;48.972;12.794;2023-07-22T01:05:55;13.80;99.90
27759;DHT22;15148;48.972;12.794;2023-07-22T01:10:58;13.80;99.90
27759;DHT22;15148;48.972;12.794;2023-07-22T01:16:01;13.70;99.90
27759;DHT22;15148;48.972;12.794;2023-07-22T01:21:03;13.50;99.90
27759;DHT22;15148;48.972;12.794;2023-07-22T01:26:07;13.60;99.90
27759;DHT22;15148;48.972;12.794;2023-07-22T01:31:09;13.50;99.90
27759;DHT22;15148;48.972;12.794;2023-07-22T01:36:11;13.60;99.90
27759;DHT22;15148;48.972;12.794;2023-07-22T01:41:14;13.50;99.90
27759;DHT22;15148;48.972;12.794;2023-07-22T01:46:16;13.40;99.90
27759;DHT22;15148;48.972;12.794;2023-07-22T01:51:18;13.40;99.90
27759;DHT22;15148;48.972;12.794;2023-07-22T01:56:20;13.20;99.90
27759;DHT22;15148;48.972;12.794;2023-07-22T02:01:22;13.10;99.90
27759;DHT22;15148;48.972;12.794;2023-07-22T02:06:25;13.20;99.90
27759;DHT22;15148;48.972;12.794;2023-07-22T02:11:27;13.20;99.90
27759;DHT22;15148;48.972;12.794;2023-07-22T02:16:29;13.20;99.90
27759;DHT22;15148;48.972;12.794;2023-07-22T02:21:31;13.20;99.90
27759;DHT22;15148;48.972;12.794;2023-07-22T02:26:33;13.30;99.90
27759;DHT22;15148;48.972;12.794;2023-07-22T02:31:35;13.30;99.90
27759;DHT22;15148;48.972;12.794;2023-07-22T02:36:37;13.20;99.90
27759;DHT22;15148;48.972;12.794;2023-07-22T02:41:39;13.00;99.90
27759;DHT22;15148;48.972;12.794;2023-07-22T02:46:43;13.00;99.90
27759;DHT22;15148;48.972;12.794;2023-07-22T02:51:44;12.90;99.90
27759;DHT22;15148;48.972;12.794;2023-07-22T02:56:46;12.90;99.90
27759;DHT22;15148;48.972;12.794;2023-07-22T03:01:48;12.80;99.90
27759;DHT22;15148;48.972;12.794;2023-07-22T03:06:50;12.90;99.90
27759;DHT22;15148;48.972;12.794;2023-07-22T03:11:52;12.80;99.90
27759;DHT22;15148;48.972;12.794;2023-07-22T03:16:54;12.70;99.90
27759;DHT22;15148;48.972;12.794;2023-07-22T03:21:56;12.80;99.90
27759;DHT22;15148;48.972;12.794;2023-07-22T03:26:58;12.80;99.90
27759;DHT22;15148;48.972;12.794;2023-07-22T03:32:00;12.70;99.90
27759;DHT22;15148;48.972;12.794;2023-07-22T03:37:02;12.60;99.90
27759;DHT22;15148;48.972;12.794;2023-07-22T03:42:04;12.60;99.90
27759;DHT22;15148;48.972;12.794;2023-07-22T03:47:06;12.70;99.90
27759;DHT22;15148;48.972;12.794;2023-07-22T03:52:09;12.60;99.90
27759;DHT22;15148;48.972;12.794;2023-07-22T03:57:10;12.60;99.90
27759;DHT22;15148;48.972;12.794;2023-07-22T04:02:12;12.60;99.90
27759;DHT22;15148;48.972;12.794;2023-07-22T04:07:14;12.50;99.90
27759;DHT22;15148;48.972;12.794;2023-07-22T04:12:16;12.50;99.90
27759;DHT22;15148;48.972;12.794;2023-07-22T04:17:18;12.60;99.90
27759;DHT22;15148;48.972;12.794;2023-07-22T04:22:21;12.70;99.90
27759;DHT22;15148;48.972;12.794;2023-07-22T04:27:23;12.60;99.90
27759;DHT22;15148;48.972;12.794;2023-07-22T04:32:25;12.70;99.90
27759;DHT22;15148;48.972;12.794;2023-07-22T04:37:28;12.80;99.90
27759;DHT22;15148;48.972;12.794;2023-07-22T04:42:30;12.80;99.90
27759;DHT22;15148;48.972;12.794;2023-07-22T04:47:32;12.90;99.90
27759;DHT22;15148;48.972;12.794;2023-07-22T04:52:34;12.90;99.90
27759;DHT22;15148;48.972;12.794;2023-07-22T04:57:36;13.00;99.90
27759;DHT22;15148;48.972;12.794;2023-07-22T05:02:38;13.20;99.90
27759;DHT22;15148;48.972;12.794;2023-07-22T05:07:40;13.30;99.90
27759;DHT22;15148;48.972;12.794;2023-07-22T05:12:42;13.40;99.90
27759;DHT22;15148;48.972;12.794;2023-07-22T05:17:44;13.40;99.90
27759;DHT22;15148;48.972;12.794;2023-07-22T05:22:46;13.60;99.90
27759;DHT22;15148;48.972;12.794;2023-07-22T05:27:49;13.80;99.90
27759;DHT22;15148;48.972;12.794;2023-07-22T05:32:54;14.00;99.90
27759;DHT22;15148;48.972;12.794;2023-07-22T05:37:56;14.30;99.90
27759;DHT22;15148;48.972;12.794;2023-07-22T05:42:58;15.10;99.90
27759;DHT22;15148;48.972;12.794;2023-07-22T05:47:59;15.60;99.90
27759;DHT22;15148;48.972;12.794;2023-07-22T05:53:01;16.40;99.90
27759;DHT22;15148;48.972;12.794;2023-07-22T05:58:03;17.60;99.90
27759;DHT22;15148;48.972;12.794;2023-07-22T06:03:10;18.50;99.90
27759;DHT22;15148;48.972;12.794;2023-07-22T06:08:12;19.00;99.90
27759;DHT22;15148;48.972;12.794;2023-07-22T06:13:14;19.70;99.90
27759;DHT22;15148;48.972;12.794;2023-07-22T06:18:15;19.90;99.90
27759;DHT22;15148;48.972;12.794;2023-07-22T06:23:17;20.00;99.90
27759;DHT22;15148;48.972;12.794;2023-07-22T06:28:19;20.00;99.90
27759;DHT22;15148;48.972;12.794;2023-07-22T06:33:21;20.00;99.90
27759;DHT22;15148;48.972;12.794;2023-07-22T06:38:23;20.20;99.90
27759;DHT22;15148;48.972;12.794;2023-07-22T06:43:25;19.50;99.90
27759;DHT22;15148;48.972;12.794;2023-07-22T06:48:27;19.50;99.90
27759;DHT22;15148;48.972;12.794;2023-07-22T06:53:29;19.50;99.90
27759;DHT22;15148;48.972;12.794;2023-07-22T06:58:33;19.70;99.90
27759;DHT22;15148;48.972;12.794;2023-07-22T07:03:34;19.50;99.90
27759;DHT22;15148;48.972;12.794;2023-07-22T07:08:36;19.30;99.90
27759;DHT22;15148;48.972;12.794;2023-07-22T07:13:38;19.30;99.90
27759;DHT22;15148;48.972;12.794;2023-07-22T07:18:40;19.40;99.90
27759;DHT22;15148;48.972;12.794;2023-07-22T07:23:42;19.60;99.90
27759;DHT22;15148;48.972;12.794;2023-07-22T07:28:46;19.60;99.90
27759;DHT22;15148;48.972;12.794;2023-07-22T07:33:48;20.00;99.90
27759;DHT22;15148;48.972;12.794;2023-07-22T07:38:50;20.20;99.90
27759;DHT22;15148;48.972;12.794;2023-07-22T07:43:52;20.30;99.90
27759;DHT22;15148;48.972;12.794;2023-07-22T07:48:58;20.60;99.90
27759;DHT22;15148;48.972;12.794;2023-07-22T07:54:04;20.60;99.90
27759;DHT22;15148;48.972;12.794;2023-07-22T07:59:08;20.90;99.90
27759;DHT22;15148;48.972;12.794;2023-07-22T08:04:10;21.00;99.90
27759;DHT22;15148;48.972;12.794;2023-07-22T08:09:13;21.40;99.90
27759;DHT22;15148;48.972;12.794;2023-07-22T08:14:20;21.50;99.90
27759;DHT22;15148;48.972;12.794;2023-07-22T08:19:22;21.60;99.90
27759;DHT22;15148;48.972;12.794;2023-07-22T08:24:24;21.60;99.90
27759;DHT22;15148;48.972;12.794;2023-07-22T08:29:26;21.90;99.90
27759;DHT22;15148;48.972;12.794;2023-07-22T08:34:28;21.70;99.90
27759;DHT22;15148;48.972;12.794;2023-07-22T08:39:31;22.10;99.90
27759;DHT22;15148;48.972;12.794;2023-07-22T08:44:33;22.30;99.90
27759;DHT22;15148;48.972;12.794;2023-07-22T08:49:39;22.50;99.90
27759;DHT22;15148;48.972;12.794;2023-07-22T08:54:43;22.60;99.90
27759;DHT22;15148;48.972;12.794;2023-07-22T08:59:45;22.60;99.90
27759;DHT22;15148;48.972;12.794;2023-07-22T09:04:47;22.90;99.90
27759;DHT22;15148;48.972;12.794;2023-07-22T09:09:49;22.90;99.90
27759;DHT22;15148;48.972;12.794;2023-07-22T09:14:53;23.10;99.90
27759;DHT22;15148;48.972;12.794;2023-07-22T09:19:55;22.90;99.90
27759;DHT22;15148;48.972;12.794;2023-07-22T09:25:20;23.20;99.90
27759;DHT22;15148;48.972;12.794;2023-07-22T09:35:28;23.20;99.90
27759;DHT22;15148;48.972;12.794;2023-07-22T09:40:30;23.50;99.90
27759;DHT22;15148;48.972;12.794;2023-07-22T09:45:32;23.70;99.90
27759;DHT22;15148;48.972;12.794;2023-07-22T09:50:36;23.60;99.90
27759;DHT22;15148;48.972;12.794;2023-07-22T09:55:38;23.10;99.90
27759;DHT22;15148;48.972;12.794;2023-07-22T10:00:44;23.20;99.90
27759;DHT22;15148;48.972;12.794;2023-07-22T10:05:49;23.60;99.90
27759;DHT22;15148;48.972;12.794;2023-07-22T10:10:53;24.00;99.90
27759;DHT22;15148;48.972;12.794;2023-07-22T10:15:57;24.20;99.90
27759;DHT22;15148;48.972;12.794;2023-07-22T10:21:00;24.40;99.90
27759;DHT22;15148;48.972;12.794;2023-07-22T10:26:02;24.70;99.90
27759;DHT22;15148;48.972;12.794;2023-07-22T10:31:04;24.70;99.90
27759;DHT22;15148;48.972;12.794;2023-07-22T10:36:08;24.70;99.90
27759;DHT22;15148;48.972;12.794;2023-07-22T10:41:14;24.80;99.90
27759;DHT22;15148;48.972;12.794;2023-07-22T10:46:19;25.10;99.90
27759;DHT22;15148;48.972;12.794;2023-07-22T10:51:35;25.30;99.90
27759;DHT22;15148;48.972;12.794;2023-07-22T10:56:37;25.30;99.90
27759;DHT22;15148;48.972;12.794;2023-07-22T11:01:43;25.20;99.90
27759;DHT22;15148;48.972;12.794;2023-07-22T11:11:48;25.30;99.90
27759;DHT22;15148;48.972;12.794;2023-07-22T11:16:50;25.10;99.90
27759;DHT22;15148;48.972;12.794;2023-07-22T11:21:54;25.30;99.90
27759;DHT22;15148;48.972;12.794;2023-07-22T11:26:56;25.30;98.70
27759;DHT22;15148;48.972;12.794;2023-07-22T11:31:57;25.50;98.60
27759;DHT22;15148;48.972;12.794;2023-07-22T11:37:00;25.40;95.30
27759;DHT22;15148;48.972;12.794;2023-07-22T11:42:03;25.00;96.30
27759;DHT22;15148;48.972;12.794;2023-07-22T11:47:07;25.20;95.30
27759;DHT22;15148;48.972;12.794;2023-07-22T11:52:16;25.40;96.20
27759;DHT22;15148;48.972;12.794;2023-07-22T11:57:23;25.50;95.40
27759;DHT22;15148;48.972;12.794;2023-07-22T12:02:27;25.30;96.30
27759;DHT22;15148;48.972;12.794;2023-07-22T12:07:35;25.00;94.60
27759;DHT22;15148;48.972;12.794;2023-07-22T12:12:42;24.30;94.50
27759;DHT22;15148;48.972;12.794;2023-07-22T12:17:52;24.20;96.00
27759;DHT22;15148;48.972;12.794;2023-07-22T12:22:55;24.10;96.30
27759;DHT22;15148;48.972;12.794;2023-07-22T12:27:57;23.90;98.20
27759;DHT22;15148;48.972;12.794;2023-07-22T12:33:00;23.40;98.00
27759;DHT22;15148;48.972;12.794;2023-07-22T12:38:02;23.60;98.10
27759;DHT22;15148;48.972;12.794;2023-07-22T12:43:03;23.70;98.60
27759;DHT22;15148;48.972;12.794;2023-07-22T12:48:05;23.80;97.50
27759;DHT22;15148;48.972;12.794;2023-07-22T12:53:08;23.80;99.10
27759;DHT22;15148;48.972;12.794;2023-07-22T12:58:10;24.30;96.60
27759;DHT22;15148;48.972;12.794;2023-07-22T13:03:12;24.60;97.90
27759;DHT22;15148;48.972;12.794;2023-07-22T13:08:14;24.60;95.80
27759;DHT22;15148;48.972;12.794;2023-07-22T13:13:16;25.00;93.60
27759;DHT22;15148;48.972;12.794;2023-07-22T13:18:17;25.20;94.40
27759;DHT22;15148;48.972;12.794;2023-07-22T13:23:19;25.60;91.90
27759;DHT22;15148;48.972;12.794;2023-07-22T13:28:21;25.80;93.40
27759;DHT22;15148;48.972;12.794;2023-07-22T13:33:23;25.60;92.50
27759;DHT22;15148;48.972;12.794;2023-07-22T13:38:25;25.50;92.10
27759;DHT22;15148;48.972;12.794;2023-07-22T13:43:27;25.50;90.90
27759;DHT22;15148;48.972;12.794;2023-07-22T13:48:30;25.80;93.10
27759;DHT22;15148;48.972;12.794;2023-07-22T13:53:31;25.80;92.20
27759;DHT22;15148;48.972;12.794;2023-07-22T13:58:33;26.00;92.00
27759;DHT22;15148;48.972;12.794;2023-07-22T14:03:35;26.00;90.60
27759;DHT22;15148;48.972;12.794;2023-07-22T14:08:37;25.90;90.10
27759;DHT22;15148;48.972;12.794;2023-07-22T14:13:40;26.10;88.50
27759;DHT22;15148;48.972;12.794;2023-07-22T14:18:42;26.20;89.00
27759;DHT22;15148;48.972;12.794;2023-07-22T14:23:46;26.20;90.60
27759;DHT22;15148;48.972;12.794;2023-07-22T14:28:48;26.10;87.00
27759;DHT22;15148;48.972;12.794;2023-07-22T14:33:50;25.90;87.30
27759;DHT22;15148;48.972;12.794;2023-07-22T14:38:52;25.70;90.20
27759;DHT22;15148;48.972;12.794;2023-07-22T14:43:53;25.80;89.50
27759;DHT22;15148;48.972;12.794;2023-07-22T14:48:55;26.00;86.90
27759;DHT22;15148;48.972;12.794;2023-07-22T14:53:57;25.80;87.80
27759;DHT22;15148;48.972;12.794;2023-07-22T14:58:59;25.30;90.10
27759;DHT22;15148;48.972;12.794;2023-07-22T15:04:01;24.80;91.20
27759;DHT22;15148;48.972;12.794;2023-07-22T15:09:04;25.10;90.80
27759;DHT22;15148;48.972;12.794;2023-07-22T15:14:10;25.00;89.80
27759;DHT22;15148;48.972;12.794;2023-07-22T15:19:12;25.00;90.90
27759;DHT22;15148;48.972;12.794;2023-07-22T15:24:14;25.00;90.40
27759;DHT22;15148;48.972;12.794;2023-07-22T15:29:16;25.00;91.40
27759;DHT22;15148;48.972;12.794;2023-07-22T15:34:18;25.00;90.80
27759;DHT22;15148;48.972;12.794;2023-07-22T15:39:20;24.90;89.40
27759;DHT22;15148;48.972;12.794;2023-07-22T15:44:22;24.70;90.30
27759;DHT22;15148;48.972;12.794;2023-07-22T15:49:28;24.60;88.30
27759;DHT22;15148;48.972;12.794;2023-07-22T15:54:30;24.50;90.90
27759;DHT22;15148;48.972;12.794;2023-07-22T15:59:32;24.50;90.40
27759;DHT22;15148;48.972;12.794;2023-07-22T16:04:34;24.40;90.20
27759;DHT22;15148;48.972;12.794;2023-07-22T16:09:38;24.20;91.50
27759;DHT22;15148;48.972;12.794;2023-07-22T16:14:40;24.00;91.50
27759;DHT22;15148;48.972;12.794;2023-07-22T16:19:42;23.90;90.70
27759;DHT22;15148;48.972;12.794;2023-07-22T16:24:44;23.90;90.90
27759;DHT22;15148;48.972;12.794;2023-07-22T16:29:46;23.80;90.00
27759;DHT22;15148;48.972;12.794;2023-07-22T16:34:48;23.80;90.20
27759;DHT22;15148;48.972;12.794;2023-07-22T16:39:50;23.60;90.20
27759;DHT22;15148;48.972;12.794;2023-07-22T16:44:55;23.50;88.40
27759;DHT22;15148;48.972;12.794;2023-07-22T16:49:57;23.40;91.30
27759;DHT22;15148;48.972;12.794;2023-07-22T16:54:58;23.20;91.80
27759;DHT22;15148;48.972;12.794;2023-07-22T17:00:00;23.20;90.30
27759;DHT22;15148;48.972;12.794;2023-07-22T17:05:02;23.10;92.20
27759;DHT22;15148;48.972;12.794;2023-07-22T17:10:06;23.00;93.20
27759;DHT22;15148;48.972;12.794;2023-07-22T17:15:09;22.80;93.70
27759;DHT22;15148;48.972;12.794;2023-07-22T17:20:12;22.70;93.70
27759;DHT22;15148;48.972;12.794;2023-07-22T17:25:14;22.60;94.20
27759;DHT22;15148;48.972;12.794;2023-07-22T17:30:18;22.50;94.60
27759;DHT22;15148;48.972;12.794;2023-07-22T17:35:20;22.30;94.70
27759;DHT22;15148;48.972;12.794;2023-07-22T17:40:21;22.20;95.30
27759;DHT22;15148;48.972;12.794;2023-07-22T17:45:27;22.00;96.80
27759;DHT22;15148;48.972;12.794;2023-07-22T17:50:30;21.90;98.80
27759;DHT22;15148;48.972;12.794;2023-07-22T17:55:32;21.70;99.40
27759;DHT22;15148;48.972;12.794;2023-07-22T18:00:34;21.50;99.90
27759;DHT22;15148;48.972;12.794;2023-07-22T18:05:36;21.40;99.90
27759;DHT22;15148;48.972;12.794;2023-07-22T18:10:37;21.10;99.90
27759;DHT22;15148;48.972;12.794;2023-07-22T18:15:39;21.00;99.90
27759;DHT22;15148;48.972;12.794;2023-07-22T18:20:42;20.80;99.90
27759;DHT22;15148;48.972;12.794;2023-07-22T18:25:44;20.60;99.90
27759;DHT22;15148;48.972;12.794;2023-07-22T18:30:46;20.50;99.90
27759;DHT22;15148;48.972;12.794;2023-07-22T18:35:51;20.30;99.90
27759;DHT22;15148;48.972;12.794;2023-07-22T18:40:53;20.20;99.90
27759;DHT22;15148;48.972;12.794;2023-07-22T18:45:55;19.90;99.90
27759;DHT22;15148;48.972;12.794;2023-07-22T18:50:57;19.80;99.90
27759;DHT22;15148;48.972;12.794;2023-07-22T18:55:58;19.70;99.90
27759;DHT22;15148;48.972;12.794;2023-07-22T19:01:01;19.40;99.90
27759;DHT22;15148;48.972;12.794;2023-07-22T19:06:03;19.30;99.90
27759;DHT22;15148;48.972;12.794;2023-07-22T19:11:04;19.10;99.90
27759;DHT22;15148;48.972;12.794;2023-07-22T19:16:08;19.00;99.90
27759;DHT22;15148;48.972;12.794;2023-07-22T19:21:11;18.90;99.90
27759;DHT22;15148;48.972;12.794;2023-07-22T19:26:13;18.70;99.90
27759;DHT22;15148;48.972;12.794;2023-07-22T19:31:14;18.40;99.90
27759;DHT22;15148;48.972;12.794;2023-07-22T19:36:18;18.40;99.90
27759;DHT22;15148;48.972;12.794;2023-07-22T19:41:20;18.40;99.90
27759;DHT22;15148;48.972;12.794;2023-07-22T19:46:21;18.30;99.90
27759;DHT22;15148;48.972;12.794;2023-07-22T19:51:23;18.20;99.90
27759;DHT22;15148;48.972;12.794;2023-07-22T19:56:26;18.10;99.90
27759;DHT22;15148;48.972;12.794;2023-07-22T20:01:28;18.00;99.90
27759;DHT22;15148;48.972;12.794;2023-07-22T20:06:30;17.90;99.90
27759;DHT22;15148;48.972;12.794;2023-07-22T20:11:32;17.80;99.90
27759;DHT22;15148;48.972;12.794;2023-07-22T20:16:34;17.70;99.90
27759;DHT22;15148;48.972;12.794;2023-07-22T20:21:36;17.60;99.90
27759;DHT22;15148;48.972;12.794;2023-07-22T20:26:38;17.40;99.90
27759;DHT22;15148;48.972;12.794;2023-07-22T20:31:40;17.20;99.90
27759;DHT22;15148;48.972;12.794;2023-07-22T20:36:42;17.10;99.90
27759;DHT22;15148;48.972;12.794;2023-07-22T20:41:44;17.20;99.90
27759;DHT22;15148;48.972;12.794;2023-07-22T20:46:45;16.90;99.90
27759;DHT22;15148;48.972;12.794;2023-07-22T20:51:47;16.70;99.90
27759;DHT22;15148;48.972;12.794;2023-07-22T20:56:49;16.70;99.90
27759;DHT22;15148;48.972;12.794;2023-07-22T21:01:51;16.60;99.90
27759;DHT22;15148;48.972;12.794;2023-07-22T21:06:53;16.50;99.90
27759;DHT22;15148;48.972;12.794;2023-07-22T21:11:55;16.40;99.90
27759;DHT22;15148;48.972;12.794;2023-07-22T21:16:57;16.40;99.90
27759;DHT22;15148;48.972;12.794;2023-07-22T21:21:59;16.40;99.90
27759;DHT22;15148;48.972;12.794;2023-07-22T21:27:01;16.40;99.90
27759;DHT22;15148;48.972;12.794;2023-07-22T21:32:03;16.30;99.90
27759;DHT22;15148;48.972;12.794;2023-07-22T21:37:05;16.30;99.90
27759;DHT22;15148;48.972;12.794;2023-07-22T21:42:08;16.30;99.90
27759;DHT22;15148;48.972;12.794;2023-07-22T21:47:10;16.40;99.90
27759;DHT22;15148;48.972;12.794;2023-07-22T21:52:12;16.30;99.90
27759;DHT22;15148;48.972;12.794;2023-07-22T21:57:14;16.10;99.90
27759;DHT22;15148;48.972;12.794;2023-07-22T22:02:15;16.10;99.90
27759;DHT22;15148;48.972;12.794;2023-07-22T22:07:18;15.90;99.90
27759;DHT22;15148;48.972;12.794;2023-07-22T22:12:20;15.90;99.90
27759;DHT22;15148;48.972;12.794;2023-07-22T22:17:22;15.80;99.90
27759;DHT22;15148;48.972;12.794;2023-07-22T22:22:24;15.70;99.90
27759;DHT22;15148;48.972;12.794;2023-07-22T22:27:25;15.70;99.90
27759;DHT22;15148;48.972;12.794;2023-07-22T22:32:27;15.70;99.90
27759;DHT22;15148;48.972;12.794;2023-07-22T22:37:29;15.60;99.90
27759;DHT22;15148;48.972;12.794;2023-07-22T22:42:31;15.60;99.90
27759;DHT22;15148;48.972;12.794;2023-07-22T22:47:33;15.60;99.90
27759;DHT22;15148;48.972;12.794;2023-07-22T22:52:35;15.70;99.90
27759;DHT22;15148;48.972;12.794;2023-07-22T22:57:38;15.70;99.90
27759;DHT22;15148;48.972;12.794;2023-07-22T23:02:40;15.80;99.90
27759;DHT22;15148;48.972;12.794;2023-07-22T23:07:42;15.90;99.90
27759;DHT22;15148;48.972;12.794;2023-07-22T23:12:44;15.90;99.90
27759;DHT22;15148;48.972;12.794;2023-07-22T23:17:46;16.00;99.90
27759;DHT22;15148;48.972;12.794;2023-07-22T23:22:48;16.00;99.90
27759;DHT22;15148;48.972;12.794;2023-07-22T23:27:49;16.00;99.90
27759;DHT22;15148;48.972;12.794;2023-07-22T23:32:51;16.10;99.90
27759;DHT22;15148;48.972;12.794;2023-07-22T23:37:54;16.00;99.90
27759;DHT22;15148;48.972;12.794;2023-07-22T23:42:56;16.00;99.90
27759;DHT22;15148;48.972;12.794;2023-07-22T23:47:58;16.00;99.90
27759;DHT22;15148;48.972;12.794;2023-07-22T23:53:00;15.90;99.90
27759;DHT22;15148;48.972;12.794;2023-07-22T23:58:02;15.80;99.90
